Terminal Aerodrome Forecast
Issued by NWS Charleston, WV

Current Version | Previous Version | Graphics & Text | Print | Product List | Glossary On
Versions: 1 2 3 4 5 6 7 8 9 10 11 12 13 14 15 16 17 18 19 20 21 22 23 24
262
FTUS41 KRLX 062116 AAA
TAFPKB
TAF AMD
KPKB 062116Z 0621/0718 15006KT 4SM -RA BR BKN011 OVC027
     FM070100 22005KT P6SM OVC009
     FM070400 27008KT P6SM BKN011
     FM071600 26005KT P6SM BKN070=

USA.gov is the U.S. government's official web portal to all federal, state and local government web resources and services.